Roanoke Regional Woodrum Field
KROA : now visible

Airfield :











YOU CAN JOIN US ON...

 
LOGIN :

Register | Disclaimer

   EN    FR    IT 

 









Legend :    VFR   Marginal VFR   IFR   Intensive IFR   Very Intensive IFR
Visi :
Ceiling :
>= 8 km
>= 3000ft
5 to 8 km
1000 to 3000 ft
1500m to 5 km
500 to 1000 ft
800 to 1500m
200 to 500 ft
< 800m
< 200 ft
Symbols :   Thunderstorms  Fog  Heavy snow  Heavy precipitations  Wind > 20 kt






- Airport Elevation : 1175 ft
- IATA code : ROA


KROA - Roanoke Regional Woodrum Field

CURRENT METAR :
  • 041854Z 22010KT 10SM FEW060 31/17 A2995 RMK AO2 SLP128 T03060172

EXPIRED METARs :
  • 041754Z VRB05KT 10SM SCT055 29/18 A2995 RMK AO2 SLP127 T02940183 10294 20222 51003
  • 041654Z 27008KT 10SM SCT050 29/19 A2995 RMK AO2 SLP127 T02940189

TAF KROA
Valid from the 04 at 18:00 until the 05 at 18:00 UTC


041740Z 0418/0518 28009KT P6SM SCT050
FM050000 29005KT P6SM FEW070
FM050900 VRB03KT P6SM FEW120
FM051400 16003KT P6SM FEW040
FM051700 16006KT P6SM SCT045
KZDC FIR / North America



MET'MAP, your aeronautical weather chart ! - Copyright ORBIFLY December 2007 - Disclaimer

ORBIFLY MET'MAP TEAM :

Programming & Development : Alexandra Zaïnal
Concept & original design : Baudouin d'Aumeries
Assistance for programming : Marc-Olivier Méhu
Technical & hardware support : Manuel Goepfert

Contact : metmap@orbifly.com




SOURCES & CREDITS :

   NOAA       Earth
Advisory